createdAt,value
2022-12-06T00:02:20.015Z,101504.47
2022-12-06T00:04:56.981Z,101498.25
2022-12-06T00:07:33.952Z,101494.78
2022-12-06T00:10:09.360Z,101496.47
2022-12-06T00:12:40.733Z,101493.91
2022-12-06T00:15:22.388Z,101486.75
2022-12-06T00:17:52.153Z,101493.00
2022-12-06T00:20:23.685Z,101489.50
2022-12-06T00:23:10.793Z,101488.56
2022-12-06T00:25:42.057Z,101489.44
2022-12-06T00:28:12.700Z,101483.25
2022-12-06T00:30:45.627Z,101482.31
2022-12-06T00:33:15.265Z,101483.19
2022-12-06T00:35:45.175Z,101485.84
2022-12-06T00:38:17.393Z,101487.53
2022-12-06T00:40:51.647Z,101485.75
2022-12-06T00:43:23.162Z,101476.94
2022-12-06T00:45:53.963Z,101483.00
2022-12-06T00:48:27.424Z,101481.41
2022-12-06T00:50:58.679Z,101476.13
2022-12-06T00:53:31.546Z,101477.88
2022-12-06T00:56:05.683Z,101477.78
2022-12-06T00:58:38.609Z,101481.34
2022-12-06T01:01:16.582Z,101475.34
2022-12-06T01:03:47.771Z,101469.09
2022-12-06T01:06:23.223Z,101463.97
2022-12-06T01:08:53.304Z,101469.09
2022-12-06T01:11:24.000Z,101469.09
2022-12-06T01:14:03.993Z,101466.38
2022-12-06T01:16:34.854Z,101463.63
2022-12-06T01:19:10.869Z,101455.59
2022-12-06T01:21:42.802Z,101460.81
2022-12-06T01:24:11.944Z,101457.38
2022-12-06T01:26:41.510Z,101454.00
2022-12-06T01:29:17.010Z,101457.53
2022-12-06T01:31:51.819Z,101449.59
2022-12-06T01:34:20.938Z,101455.63
2022-12-06T01:36:56.545Z,101458.47
2022-12-06T01:39:27.194Z,101453.91
2022-12-06T01:42:07.982Z,101458.25
2022-12-06T01:44:54.304Z,101452.09
2022-12-06T01:47:30.839Z,101453.81
2022-12-06T01:50:06.075Z,101455.63
2022-12-06T01:52:54.438Z,101450.25
2022-12-06T01:55:30.086Z,101447.59
2022-12-06T01:58:12.512Z,101443.31
2022-12-06T02:00:43.275Z,101437.97
2022-12-06T02:03:22.676Z,101436.97
2022-12-06T02:05:52.758Z,101437.13
2022-12-06T02:08:24.076Z,101434.44
2022-12-06T02:10:54.091Z,101430.03
2022-12-06T02:13:26.881Z,101429.97
2022-12-06T02:16:13.733Z,101429.84
2022-12-06T02:18:56.833Z,101433.25
2022-12-06T02:21:38.722Z,101428.72
2022-12-06T02:24:51.454Z,101418.88
2022-12-06T02:28:14.300Z,101422.41
2022-12-06T02:31:02.318Z,101408.13
2022-12-06T02:33:40.442Z,101397.63
2022-12-06T02:36:20.499Z,101402.84
2022-12-06T02:38:55.989Z,101401.72
2022-12-06T02:41:32.289Z,101405.00
2022-12-06T02:44:10.663Z,101391.00
2022-12-06T02:46:46.062Z,101397.94
2022-12-06T02:49:17.621Z,101395.22
2022-12-06T02:51:51.959Z,101384.44
2022-12-06T02:54:23.189Z,101387.97
2022-12-06T02:56:55.159Z,101387.81
2022-12-06T02:59:31.781Z,101387.63
2022-12-06T03:02:06.074Z,101384.84
2022-12-06T03:04:53.207Z,101384.75
2022-12-06T03:07:40.992Z,101383.81
2022-12-06T03:10:41.915Z,101391.72
2022-12-06T03:13:19.541Z,101388.34
2022-12-06T03:16:00.916Z,101377.69
2022-12-06T03:18:50.216Z,101375.91
2022-12-06T03:21:28.803Z,101378.31
2022-12-06T03:24:01.606Z,101371.72
2022-12-06T03:26:37.242Z,101380.78
2022-12-06T03:29:13.178Z,101371.94
2022-12-06T03:31:49.900Z,101357.88
2022-12-06T03:34:28.238Z,101362.25
2022-12-06T03:36:58.560Z,101359.75
2022-12-06T03:39:39.364Z,101359.66
2022-12-06T03:42:13.481Z,101355.53
2022-12-06T03:44:48.727Z,101358.75
2022-12-06T03:47:28.382Z,101363.47
2022-12-06T03:50:05.571Z,101361.56
2022-12-06T03:52:39.649Z,101356.09
2022-12-06T03:55:10.724Z,101351.41
2022-12-06T03:57:39.812Z,101361.03
2022-12-06T04:00:11.539Z,101355.09
2022-12-06T04:02:42.498Z,101356.06
2022-12-06T04:05:15.403Z,101359.56
2022-12-06T04:07:47.701Z,101356.00
2022-12-06T04:10:16.774Z,101349.38
2022-12-06T04:13:05.945Z,101349.16
2022-12-06T04:15:41.714Z,101347.38
2022-12-06T04:18:20.656Z,101345.69
2022-12-06T04:21:17.745Z,101350.06
2022-12-06T04:23:50.247Z,101345.38
2022-12-06T04:26:23.282Z,101341.91
2022-12-06T04:29:11.974Z,101344.59
2022-12-06T04:31:59.745Z,101338.22
2022-12-06T04:34:46.655Z,101340.81
2022-12-06T04:37:34.746Z,101334.66
2022-12-06T04:40:04.277Z,101332.13
2022-12-06T04:42:51.262Z,101325.03
2022-12-06T04:45:24.272Z,101324.97
2022-12-06T04:47:53.801Z,101325.09
2022-12-06T04:50:23.178Z,101323.41
2022-12-06T04:52:54.753Z,101325.91
2022-12-06T04:55:27.399Z,101312.78
2022-12-06T04:57:57.786Z,101316.94
2022-12-06T05:00:38.220Z,101315.50
2022-12-06T05:03:10.447Z,101312.78
2022-12-06T05:05:39.982Z,101309.63
2022-12-06T05:08:13.897Z,101306.16
2022-12-06T05:10:44.653Z,101312.44
2022-12-06T05:13:13.746Z,101306.22
2022-12-06T05:15:56.291Z,101308.63
2022-12-06T05:18:27.200Z,101306.69
2022-12-06T05:21:06.258Z,101318.13
2022-12-06T05:23:38.518Z,101311.19
2022-12-06T05:26:15.275Z,101309.31
2022-12-06T05:28:46.302Z,101302.88
2022-12-06T05:31:19.454Z,101315.25
2022-12-06T05:33:52.699Z,101313.47
2022-12-06T05:36:27.077Z,101308.19
2022-12-06T05:38:58.628Z,101310.97
2022-12-06T05:41:28.011Z,101305.63
2022-12-06T05:43:58.026Z,101307.25
2022-12-06T05:46:27.922Z,101297.59
2022-12-06T05:48:57.755Z,101297.75
2022-12-06T05:51:29.731Z,101308.25
2022-12-06T05:54:03.171Z,101306.34
2022-12-06T05:56:37.736Z,101301.00
2022-12-06T05:59:08.469Z,101303.28
2022-12-06T06:01:37.633Z,101310.25
2022-12-06T06:04:07.037Z,101314.75
2022-12-06T06:06:41.239Z,101305.19
2022-12-06T06:09:13.195Z,101306.06
2022-12-06T06:11:42.961Z,101306.69
2022-12-06T06:14:12.873Z,101304.09
2022-12-06T06:16:46.588Z,101317.94
2022-12-06T06:19:16.035Z,101313.53
2022-12-06T06:21:49.557Z,101315.31
2022-12-06T06:24:23.409Z,101313.34
2022-12-06T06:26:54.132Z,101311.75
2022-12-06T06:29:27.293Z,101316.94
2022-12-06T06:31:57.672Z,101317.06
2022-12-06T06:34:28.048Z,101316.00
2022-12-06T06:36:57.239Z,101314.97
2022-12-06T06:39:30.942Z,101317.50
2022-12-06T06:42:00.420Z,101319.16
2022-12-06T06:44:30.129Z,101314.91
2022-12-06T06:47:03.178Z,101311.38
2022-12-06T06:49:32.364Z,101312.00
2022-12-06T06:52:06.758Z,101308.94
2022-12-06T06:54:41.137Z,101307.38
2022-12-06T06:57:17.399Z,101311.22
2022-12-06T06:59:47.762Z,101313.72
2022-12-06T07:02:18.451Z,101316.09
2022-12-06T07:04:51.681Z,101316.56
2022-12-06T07:07:28.983Z,101312.13
2022-12-06T07:10:04.924Z,101317.44
2022-12-06T07:12:37.481Z,101310.41
2022-12-06T07:15:11.961Z,101316.47
2022-12-06T07:18:04.269Z,101318.88
2022-12-06T07:20:38.839Z,101312.69
2022-12-06T07:23:25.635Z,101324.03
2022-12-06T07:26:06.562Z,101307.38
2022-12-06T07:28:40.501Z,101310.16
2022-12-06T07:31:13.652Z,101307.50
2022-12-06T07:33:44.634Z,101308.31
2022-12-06T07:36:16.987Z,101299.00
2022-12-06T07:38:59.429Z,101306.66
2022-12-06T07:41:49.056Z,101299.66
2022-12-06T07:44:40.255Z,101304.31
2022-12-06T07:47:17.845Z,101309.38
2022-12-06T07:49:52.386Z,101304.06
2022-12-06T07:52:22.180Z,101312.03
2022-12-06T07:54:53.790Z,101309.25
2022-12-06T07:57:27.231Z,101314.31
2022-12-06T08:00:02.789Z,101306.06
2022-12-06T08:02:35.900Z,101313.63
2022-12-06T08:05:06.488Z,101310.19
2022-12-06T08:07:36.042Z,101310.31
2022-12-06T08:10:09.940Z,101307.00
2022-12-06T08:12:43.332Z,101308.47
2022-12-06T08:15:14.380Z,101309.19
2022-12-06T08:17:46.212Z,101309.91
2022-12-06T08:20:23.073Z,101305.59
2022-12-06T08:22:52.727Z,101308.31
2022-12-06T08:25:28.223Z,101308.19
2022-12-06T08:27:59.711Z,101322.19
2022-12-06T08:30:32.514Z,101320.53
2022-12-06T08:33:02.519Z,101315.50
2022-12-06T08:35:36.235Z,101317.19
2022-12-06T08:38:05.442Z,101320.94
2022-12-06T08:40:35.426Z,101317.03
2022-12-06T08:43:08.842Z,101320.94
2022-12-06T08:45:41.262Z,101318.00
2022-12-06T08:48:15.817Z,101324.50
2022-12-06T08:50:45.222Z,101323.59
2022-12-06T08:53:15.423Z,101322.41
2022-12-06T08:56:02.313Z,101331.16
2022-12-06T08:58:33.508Z,101323.31
2022-12-06T09:01:13.929Z,101327.44
2022-12-06T09:03:43.314Z,101331.03
2022-12-06T09:06:23.394Z,101337.94
2022-12-06T09:08:53.603Z,101337.13
2022-12-06T09:11:23.780Z,101334.53
2022-12-06T09:13:56.290Z,101333.56
2022-12-06T09:16:26.683Z,101333.19
2022-12-06T09:18:56.379Z,101339.25
2022-12-06T09:21:34.822Z,101340.38
2022-12-06T09:24:20.298Z,101345.50
2022-12-06T09:26:52.604Z,101341.69
2022-12-06T09:29:23.286Z,101342.84
2022-12-06T09:32:01.770Z,101340.38
2022-12-06T09:34:33.876Z,101342.56
2022-12-06T09:37:10.253Z,101344.84
2022-12-06T09:39:50.678Z,101336.44
2022-12-06T09:43:01.893Z,101337.66
2022-12-06T09:46:15.569Z,101335.25
2022-12-06T09:49:19.787Z,101337.91
2022-12-06T09:52:41.208Z,101335.25
2022-12-06T09:55:37.767Z,101334.19
2022-12-06T09:58:25.802Z,101342.22
2022-12-06T10:01:22.419Z,101340.16
2022-12-06T10:04:08.878Z,101336.44
2022-12-06T10:06:51.980Z,101335.63
2022-12-06T10:09:43.141Z,101337.28
2022-12-06T10:12:37.384Z,101334.69
2022-12-06T10:15:33.095Z,101332.41
2022-12-06T10:18:33.108Z,101334.94
2022-12-06T10:21:21.078Z,101335.88
2022-12-06T10:24:15.128Z,101326.63
2022-12-06T10:26:53.071Z,101329.56
2022-12-06T10:29:29.971Z,101333.88
2022-12-06T10:32:02.484Z,101339.47
2022-12-06T10:35:01.122Z,101342.50
2022-12-06T10:37:48.825Z,101334.34
2022-12-06T10:40:29.473Z,101328.19
2022-12-06T10:43:10.843Z,101334.69
2022-12-06T10:46:08.868Z,101330.22
2022-12-06T10:48:56.276Z,101325.53
2022-12-06T10:51:43.573Z,101320.44
2022-12-06T10:54:28.111Z,101319.41
2022-12-06T10:57:07.354Z,101315.56
2022-12-06T10:59:44.268Z,101311.09
2022-12-06T11:02:41.352Z,101323.53
2022-12-06T11:05:29.176Z,101312.31
2022-12-06T11:08:09.055Z,101316.06
2022-12-06T11:10:41.558Z,101307.88
2022-12-06T11:13:30.898Z,101310.16
2022-12-06T11:16:10.879Z,101300.75
2022-12-06T11:18:42.307Z,101307.72
2022-12-06T11:21:30.089Z,101300.94
2022-12-06T11:24:19.513Z,101297.06
2022-12-06T11:26:57.608Z,101289.53
2022-12-06T11:29:31.074Z,101289.41
2022-12-06T11:32:05.955Z,101283.84
2022-12-06T11:34:50.347Z,101283.03
2022-12-06T11:37:24.050Z,101273.44
2022-12-06T11:40:07.493Z,101281.47
2022-12-06T11:42:44.917Z,101272.09
2022-12-06T11:45:26.532Z,101265.38
2022-12-06T11:47:59.573Z,101269.66
2022-12-06T11:50:37.042Z,101271.09
2022-12-06T11:53:30.111Z,101260.44
2022-12-06T11:56:13.230Z,101248.69
2022-12-06T11:58:52.328Z,101258.63
2022-12-06T12:01:43.448Z,101244.22
2022-12-06T12:04:39.513Z,101255.34
2022-12-06T12:07:18.768Z,101245.84
2022-12-06T12:09:57.827Z,101231.22
2022-12-06T12:12:56.318Z,101236.28
2022-12-06T12:15:28.508Z,101234.75
2022-12-06T12:18:01.395Z,101238.56
2022-12-06T12:20:38.406Z,101229.34
2022-12-06T12:23:19.759Z,101233.25
2022-12-06T12:26:06.070Z,101224.22
2022-12-06T12:28:39.048Z,101223.47
2022-12-06T12:31:18.603Z,101222.03
2022-12-06T12:34:11.969Z,101219.59
2022-12-06T12:36:41.143Z,101215.06
2022-12-06T12:39:38.319Z,101217.03
2022-12-06T12:42:30.037Z,101216.59
2022-12-06T12:45:08.874Z,101212.44
2022-12-06T12:47:37.942Z,101209.94
2022-12-06T12:50:24.372Z,101205.84
2022-12-06T12:52:54.911Z,101202.25
2022-12-06T12:55:39.416Z,101199.09
2022-12-06T12:58:13.527Z,101199.09
2022-12-06T13:00:49.774Z,101200.25
2022-12-06T13:03:50.131Z,101201.84
2022-12-06T13:06:28.670Z,101197.44
2022-12-06T13:09:02.696Z,101193.00
2022-12-06T13:11:40.870Z,101187.91
2022-12-06T13:17:59.541Z,101192.59
2022-12-06T13:20:33.338Z,101188.19
2022-12-06T13:23:10.088Z,101184.75
2022-12-06T13:25:40.338Z,101181.31
2022-12-06T13:28:22.789Z,101181.03
2022-12-06T13:31:03.708Z,101183.63
2022-12-06T13:33:42.749Z,101178.09
2022-12-06T13:36:16.474Z,101176.88
2022-12-06T13:38:45.976Z,101185.75
2022-12-06T13:41:36.768Z,101188.91
2022-12-06T13:44:44.529Z,101188.25
2022-12-06T13:47:52.382Z,101187.63
2022-12-06T13:50:55.605Z,101191.66
2022-12-06T13:53:29.011Z,101191.72
2022-12-06T13:56:02.518Z,101181.44
2022-12-06T13:59:03.392Z,101191.94
2022-12-06T14:01:47.679Z,101184.75
2022-12-06T14:04:39.318Z,101181.38
2022-12-06T14:09:49.659Z,101182.09
2022-12-06T14:12:23.668Z,101183.25
2022-12-06T14:15:00.173Z,101175.22
2022-12-06T14:18:01.546Z,101176.28
2022-12-06T14:20:33.569Z,101176.13
2022-12-06T14:23:30.741Z,101168.31
2022-12-06T14:26:32.719Z,101168.38
2022-12-06T14:29:04.117Z,101174.41
2022-12-06T14:31:41.200Z,101167.53
2022-12-06T14:34:32.010Z,101162.38
2022-12-06T14:37:05.012Z,101157.19
2022-12-06T14:39:35.782Z,101172.25
2022-12-06T14:42:34.553Z,101178.31
2022-12-06T14:45:04.809Z,101174.84
2022-12-06T14:47:35.989Z,101166.09
2022-12-06T14:50:45.755Z,101170.41
2022-12-06T14:53:18.495Z,101164.94
2022-12-06T14:56:00.727Z,101166.72
2022-12-06T14:58:34.846Z,101168.50
2022-12-06T15:01:08.018Z,101160.25
2022-12-06T15:03:41.382Z,101160.06
2022-12-06T15:06:20.787Z,101155.09
2022-12-06T15:09:12.342Z,101157.75
2022-12-06T15:12:10.599Z,101160.25
2022-12-06T15:14:55.668Z,101158.72
2022-12-06T15:17:25.660Z,101159.75
2022-12-06T15:19:59.897Z,101166.78
2022-12-06T15:22:33.574Z,101159.47
2022-12-06T15:25:04.021Z,101153.34
2022-12-06T15:27:35.056Z,101162.91
2022-12-06T15:30:14.945Z,101165.34
2022-12-06T15:32:43.836Z,101165.34
2022-12-06T15:35:20.207Z,101162.72
2022-12-06T15:37:51.510Z,101166.56
2022-12-06T15:40:25.402Z,101163.09
2022-12-06T15:43:04.599Z,101164.72
2022-12-06T15:45:38.338Z,101164.03
2022-12-06T15:48:10.789Z,101172.94
2022-12-06T15:50:39.876Z,101171.16
2022-12-06T15:53:13.404Z,101166.69
2022-12-06T15:55:42.837Z,101162.41
2022-12-06T15:58:13.116Z,101153.22
2022-12-06T16:00:45.586Z,101163.25
2022-12-06T16:03:15.120Z,101158.06
2022-12-06T16:05:47.841Z,101150.25
2022-12-06T16:08:19.349Z,101152.13
2022-12-06T16:11:11.310Z,101143.50
2022-12-06T16:13:47.633Z,101149.78
2022-12-06T16:16:20.789Z,101148.00
2022-12-06T16:18:52.013Z,101158.56
2022-12-06T16:21:25.530Z,101153.25
2022-12-06T16:24:18.026Z,101153.53
2022-12-06T16:26:48.336Z,101143.44
2022-12-06T16:29:25.678Z,101153.97
2022-12-06T16:31:59.449Z,101157.31
2022-12-06T16:34:29.905Z,101153.84
2022-12-06T16:37:03.342Z,101153.47
2022-12-06T16:39:35.616Z,101151.00
2022-12-06T16:42:07.413Z,101147.56
2022-12-06T16:44:53.234Z,101145.78
2022-12-06T16:49:55.432Z,101161.97
2022-12-06T16:52:27.426Z,101163.16
2022-12-06T16:54:56.637Z,101160.50
2022-12-06T16:57:25.564Z,101156.13
2022-12-06T16:59:57.211Z,101158.94
2022-12-06T17:02:32.762Z,101152.66
2022-12-06T17:05:09.129Z,101165.81
2022-12-06T17:07:41.254Z,101160.25
2022-12-06T17:10:12.000Z,101168.19
2022-12-06T17:12:41.749Z,101164.09
2022-12-06T17:15:15.638Z,101165.28
2022-12-06T17:17:46.861Z,101167.00
2022-12-06T17:20:19.179Z,101162.03
2022-12-06T17:22:48.678Z,101164.00
2022-12-06T17:25:19.098Z,101169.13
2022-12-06T17:27:52.220Z,101172.69
2022-12-06T17:30:23.850Z,101182.13
2022-12-06T17:32:58.747Z,101183.72
2022-12-06T17:35:32.473Z,101181.44
2022-12-06T17:38:02.821Z,101174.94
2022-12-06T17:40:37.120Z,101179.69
2022-12-06T17:43:16.952Z,101173.78
2022-12-06T17:45:47.904Z,101166.69
2022-12-06T17:48:17.091Z,101169.06
2022-12-06T17:50:48.341Z,101166.28
2022-12-06T17:53:22.996Z,101161.47
2022-12-06T17:55:54.533Z,101166.03
2022-12-06T17:58:27.138Z,101169.75
2022-12-06T18:01:02.439Z,101159.28
2022-12-06T18:03:31.880Z,101158.22
2022-12-06T18:06:03.768Z,101158.22
2022-12-06T18:08:36.984Z,101159.94
2022-12-06T18:11:07.774Z,101162.72
2022-12-06T18:13:37.038Z,101156.63
2022-12-06T18:16:23.709Z,101160.22
2022-12-06T18:19:08.449Z,101155.81
2022-12-06T18:21:38.502Z,101160.31
2022-12-06T18:24:31.974Z,101157.81
2022-12-06T18:26:59.991Z,101159.53
2022-12-06T18:29:31.807Z,101154.34
2022-12-06T18:32:04.306Z,101152.63
2022-12-06T18:34:35.824Z,101141.91
2022-12-06T18:37:05.635Z,101150.03
2022-12-06T18:39:34.764Z,101151.66
2022-12-06T18:42:03.699Z,101144.63
2022-12-06T18:44:58.002Z,101145.44
2022-12-06T18:47:29.815Z,101148.38
2022-12-06T18:50:00.926Z,101147.22
2022-12-06T18:52:30.109Z,101141.75
2022-12-06T18:54:59.797Z,101141.56
2022-12-06T18:57:32.202Z,101147.06
2022-12-06T19:00:02.327Z,101137.34
2022-12-06T19:02:35.134Z,101139.25
2022-12-06T19:05:08.468Z,101136.88
2022-12-06T19:07:40.430Z,101135.25
2022-12-06T19:10:11.177Z,101130.44
2022-12-06T19:12:43.501Z,101129.78
2022-12-06T19:15:13.650Z,101122.09
2022-12-06T19:17:48.019Z,101124.16
2022-12-06T19:20:20.325Z,101114.81
2022-12-06T19:22:55.984Z,101116.56
2022-12-06T19:25:27.569Z,101116.84
2022-12-06T19:27:56.940Z,101113.38
2022-12-06T19:30:26.015Z,101101.88
2022-12-06T19:33:00.037Z,101102.75
2022-12-06T19:35:36.641Z,101100.78
2022-12-06T19:38:09.581Z,101098.16
2022-12-06T19:40:49.999Z,101096.72
2022-12-06T19:43:42.010Z,101102.50
2022-12-06T19:46:17.906Z,101104.19
2022-12-06T19:48:49.577Z,101098.66
2022-12-06T19:51:24.289Z,101094.47
2022-12-06T19:53:59.044Z,101108.63
2022-12-06T19:56:30.344Z,101111.59
2022-12-06T19:59:05.147Z,101112.47
2022-12-06T20:01:34.952Z,101102.84
2022-12-06T20:04:05.755Z,101108.31
2022-12-06T20:06:37.423Z,101108.47
2022-12-06T20:09:07.631Z,101106.28
2022-12-06T20:12:06.617Z,101107.97
2022-12-06T20:14:45.351Z,101102.72
2022-12-06T20:17:18.415Z,101095.63
2022-12-06T20:19:49.472Z,101086.56
2022-12-06T20:22:23.075Z,101089.41
2022-12-06T20:24:55.011Z,101093.06
2022-12-06T20:27:44.583Z,101087.78
2022-12-06T20:30:28.791Z,101087.91
2022-12-06T20:33:08.792Z,101079.56
2022-12-06T20:35:40.811Z,101074.31
2022-12-06T20:38:16.000Z,101072.53
2022-12-06T20:40:46.526Z,101070.94
2022-12-06T20:43:16.143Z,101062.06
2022-12-06T20:45:47.735Z,101058.38
2022-12-06T20:48:17.906Z,101061.94
2022-12-06T20:50:48.737Z,101053.38
2022-12-06T20:53:25.068Z,101055.50
2022-12-06T20:55:59.704Z,101054.00
2022-12-06T20:58:37.446Z,101051.25
2022-12-06T21:01:09.148Z,101054.09
2022-12-06T21:03:42.172Z,101048.03
2022-12-06T21:06:19.672Z,101043.59
2022-12-06T21:08:56.667Z,101044.28
2022-12-06T21:11:27.105Z,101045.44
2022-12-06T21:14:00.133Z,101041.66
2022-12-06T21:16:34.943Z,101030.53
2022-12-06T21:19:07.383Z,101021.63
2022-12-06T21:21:45.127Z,101031.38
2022-12-06T21:24:20.197Z,101031.25
2022-12-06T21:26:56.508Z,101026.94
2022-12-06T21:29:31.618Z,101024.41
2022-12-06T21:32:08.433Z,101036.09
2022-12-06T21:34:46.003Z,101025.22
2022-12-06T21:37:17.088Z,101025.47
2022-12-06T21:39:48.176Z,101012.09
2022-12-06T21:42:25.134Z,101009.41
2022-12-06T21:44:54.010Z,101008.88
2022-12-06T21:47:28.579Z,101002.25
2022-12-06T21:49:57.197Z,100994.50
2022-12-06T21:52:28.399Z,100999.03
2022-12-06T21:54:57.516Z,100999.31
2022-12-06T21:57:27.016Z,100995.13
2022-12-06T21:59:59.296Z,101003.72
2022-12-06T22:02:29.240Z,101001.50
2022-12-06T22:04:59.527Z,100998.06
2022-12-06T22:07:31.866Z,100999.97
2022-12-06T22:10:02.081Z,100995.75
2022-12-06T22:12:34.359Z,100993.28
2022-12-06T22:15:04.402Z,101004.78
2022-12-06T22:17:33.082Z,100998.94
2022-12-06T22:20:07.104Z,101000.25
2022-12-06T22:22:41.167Z,100993.41
2022-12-06T22:25:16.350Z,100991.06
2022-12-06T22:27:48.594Z,100987.63
2022-12-06T22:30:18.079Z,100984.53
2022-12-06T22:32:47.101Z,100985.41
2022-12-06T22:35:18.110Z,100977.06
2022-12-06T22:37:49.172Z,100971.56
2022-12-06T22:40:18.655Z,100979.34
2022-12-06T22:42:47.693Z,100970.59
2022-12-06T22:45:19.908Z,100966.03
2022-12-06T22:47:51.819Z,100965.44
2022-12-06T22:50:25.831Z,100971.25
2022-12-06T22:52:58.863Z,100964.44
2022-12-06T22:55:30.405Z,100954.78
2022-12-06T22:58:00.411Z,100953.84
2022-12-06T23:00:31.487Z,100952.94
2022-12-06T23:03:06.780Z,100948.72
2022-12-06T23:05:40.440Z,100944.38
2022-12-06T23:08:13.132Z,100938.59
2022-12-06T23:10:42.476Z,100939.34
2022-12-06T23:13:12.683Z,100940.66
2022-12-06T23:15:45.968Z,100933.66
2022-12-06T23:18:19.716Z,100928.50
2022-12-06T23:20:55.802Z,100939.75
2022-12-06T23:23:29.076Z,100937.19
2022-12-06T23:26:02.641Z,100948.00
2022-12-06T23:28:32.770Z,100942.72
2022-12-06T23:31:09.502Z,100942.16
2022-12-06T23:33:39.052Z,100924.81
2022-12-06T23:36:14.244Z,100925.28
2022-12-06T23:38:46.130Z,100923.66
2022-12-06T23:41:22.309Z,100913.75
2022-12-06T23:43:55.836Z,100908.66
2022-12-06T23:46:29.019Z,100908.59
2022-12-06T23:48:59.457Z,100901.81
2022-12-06T23:51:35.175Z,100905.53
2022-12-06T23:54:12.931Z,100894.81
2022-12-06T23:56:44.035Z,100894.94
2022-12-06T23:59:18.522Z,100882.75
